Accueil
METAR-TAF:

METAR-TAF

Aéroports :

Laupheim, Allemagne

latitude: 48-13N, longitude: 009-55E, altitude: 538 m

Observation

Le bulletin a été fait il y a 35 minutes, à 08:20 UTC
Vent 9 kt de ouest/sud-ouest
Température -1°C
Humidité 93%
Pression 1020 hPa
Visibilité: 4000 m
Nuages fragmentés à une hauteur de 300 ft
brume

METAR: ETHL 060820Z 25009KT 4000 BR BKN003 M01/M02 Q1020 YLO YLO BECMG BLU+

Heure: 09:55 (08:55 UTC)

Prévision

Le bulletin a été fait il y a 35 minutes, à 08:20 UTC
Prévision valable du 06 à 09 UTC au 06 à 15 UTC
Vent 10 kt de ouest/sud-ouest
Visibilité: 4000 m
Nuages fragmentés à une hauteur de 300 ft
brume
Evoluant progressivement
du 06 à 09 UTC au 06 à 11 UTC
Vent 10 kt de ouest/sud-ouest
Visibilité: 8000 m
Nuages épars à une hauteur de 300 ft

TAF: ETHL 060820Z 0609/0615 24010KT 4000 BR BKN003 BECMG 0609/0611 25010KT 8000 NSW SCT003

Observations et prévisions météorologiques de plus de 4000 aéroports (messages METAR et TAF).

Les stations disponibles sont représentées par des disques jaunes et rouges sur la carte.

Passer la souris dessus pour voir le nom de la station.

Cliquer dessus pour voir les observations et prévisions météorologiques.

Pour changer de carte: cliquez sur les boutons verts avec une croix noire pour zoomer, sur le bouton vert avec un tiret pour effectuer un zoom arrière, ou sur les flèches vertes pour les cartes adjacentes.


METAR-TAF: